Detall de PIREP

Printer-friendly versionPDF version

[2012/11/01 14:25:00]
Flight IATA:CT1005
Pilot Number:037
Company ICAO:CAT
Aircraft Type:B752/E
PAX:150
Aircraft Registration:PAX
Departing Airport: EBOS
Destination Airport: EINN
Alternate Airport:EICK
Online: VATSIM
Route:SASKI UL179 CPT UL9 SLANY DCT TIPUR
Flight Level:F340
No Slew and time accel
No pause
Crash detect
Detect pilot in Cockpit between each 30 and 45 minutes
14:25 Zero fuel Weight: 171233 Lbs, Fuel Weight: 20086 Lbs
14:25 VATSIM:EBOS 011320Z 20011KT 9999 FEW015TCU BKN038 07/05 Q0981 TEMPO 22015G25KT 4000 SHRA
14:25 VATSIM:EINN 011330Z 25014KT 9999 -SHRA FEW011 BKN018CB 06/04 Q0979 NOSIG
14:29 Parking Brakes off
14:39 Take-off
14:39 Take off Weight: 189674 Lbs
14:39 Wind: 203º @ 011 Knots Heading: 255º
14:39 POS N51º 11´ 59´´ E002º 52´ 29´´
14:39 Gear Up: 192 Knots
14:39 Flaps:2 at 192 Knots
14:40 Flaps:1 at 224 Knots
14:40 Flaps:0 at 207 Knots
14:54 Wind:231º@058 Knots Heading: 268º Ground Speed: 411 Knots Altitude 24711 ft
14:58 TOC
14:58 Fuel Weight: 14095 Lb
15:09 Wind:263º@047 Knots Heading: 283º Ground Speed: 426 Knots Altitude 32985 ft
15:24 Wind:279º@055 Knots Heading: 281º Ground Speed: 414 Knots Altitude 33018 ft
15:32 TOD
15:32 Fuel Weight: 9624 Lb
15:39 Wind:258º@053 Knots Heading: 283º Ground Speed: 340 Knots Altitude 22995 ft
15:52 Flaps:1 at 211 Knots
15:54 Wind:278º@018 Knots Heading: 311º Ground Speed: 193 Knots Altitude 2985 ft
15:56 Flaps:2 at 179 Knots
15:57 Flaps:3 at 173 Knots
16:00 Gear Down: 157 Knots
16:00 Flaps:4 at 147 Knots
16:01 Flaps:5 at 146 Knots
16:01 TouchDown:Rate -331 ft/min Speed: 141 Knots
16:01 VATSIM:EINN 011500Z 28011KT 9999 -SHRA FEW009 BKN019CB BKN040 05/04 Q0979 NOSIG
16:01 Land
16:01 Wind:289º@013 Knots
16:01 Heading: 232º
16:01 Flight Duration: 01:22
16:01 Landing Weight: 178770 Lbs
16:01 POS N52º 42´ 07´´ W008º 55´ 29´´
16:04 Parking brakes on
16:04 Block to Block Duration: 01:35
16:04 Final Fuel: 7142 Lbls
16:04 Spent Fuel: 12943 Lbls
16:04 Flight Length: 373 NM
16:04 TOD Land Length: 129 NM

Exportar CSV

Powered by Drupal - Modified by Danger4k